Список аэропортов
Фактическая погода:

09 декабря, 17:50
Температура: +15°C (+14.5*)
Ветер: юго-западный 3 м/с
Давление: *760 мм
неб. 600 м
неб. облачность
1500 м
Время (МСК)Темп. СВетерВлажностьДавлениеОблачностьОсадки
15:00+16ЮВ, 1 м/с60%1014 гПаоблачно
16:00+16ЮВ, 2 м/с61%1014 гПаоблачно
17:00+16В, 2 м/с63%1014 гПас прояснениями
18:00+15В, 2 м/с69%1014 гПас прояснениями
19:00+14ЮВ, 2 м/с76%1013 гПас прояснениями
20:00+12ЮВ, 1 м/с84%1013 гПас прояснениями
21:00+11ЮВ, 1 м/с90%1013 гПамалооблачно
22:00+10ЮВ, 1 м/с94%1013 гПамалооблачно
23:00+10ЮВ, 1 м/с94%1012 гПамалооблачно
10 декабря
00:00+10В, 1 м/с94%1012 гПамалооблачно
01:00+10В, 1 м/с93%1011 гПас прояснениями
02:00+11В, 2 м/с91%1011 гПаоблачнодождь
03:00+12В, 2 м/с90%1010 гПаоблачнодождь
04:00+12В, 2 м/с91%1010 гПаоблачнодождь
05:00+11В, 1 м/с94%1010 гПаоблачнодождь
06:00+11В, 1 м/с95%1009 гПаоблачнодождь
07:00+11В, 1 м/с96%1009 гПаоблачнодождь
08:00+11ЮВ, 1 м/с97%1009 гПаоблачнодождь
09:00+12ЮВ, 1 м/с97%1009 гПаоблачнодождь
10:00+14В, 2 м/с89%1008 гПаоблачнодождь
11:00+15В, 5 м/с86%1008 гПаоблачнодождь
12:00+15В, 6 м/с85%1007 гПаоблачнодождь
13:00+15В, 6 м/с85%1007 гПаоблачнодождь
14:00+15В, 6 м/с86%1006 гПаоблачнодождь
15:00+16В, 7 м/с89%1005 гПаоблачнодождь
16:00+15В, 7 м/с90%1005 гПаоблачнодождь
17:00+15В, 6 м/с90%1004 гПаоблачнодождь
18:00+15В, 6 м/с91%1004 гПаоблачнодождь
19:00+15В, 5 м/с92%1004 гПаоблачнодождь
20:00+15В, 6 м/с92%1003 гПаоблачнодождь
21:00+15В, 6 м/с93%1003 гПаоблачнодождь
22:00+15В, 8 м/с93%1001 гПаоблачнодождь
23:00+16В, 13 м/с89%998 гПаоблачнодождь
11 декабря
00:00+16Ю, 9 м/с90%998 гПаоблачно
01:00+15Ю, 5 м/с84%1000 гПаоблачно
02:00+14Ю, 5 м/с90%1001 гПамалооблачно
03:00+14Ю, 5 м/с78%1001 гПаясно
04:00+14Ю, 4 м/с79%1002 гПаясно
05:00+13Ю, 3 м/с91%1002 гПаоблачно
06:00+13Ю, 3 м/с94%1002 гПас прояснениями
07:00+12Ю, 1 м/с97%1002 гПамалооблачно
08:00+11ЮЗ, 1 м/с97%1002 гПаоблачно
09:00+11Ю, 1 м/с97%1003 гПаоблачно
10:00+14Ю, 3 м/с88%1003 гПас прояснениями
11:00+15Ю, 5 м/с82%1004 гПас прояснениями
12:00+15Ю, 6 м/с80%1004 гПас прояснениямисл. дождь
13:00+15Ю, 6 м/с80%1003 гПас прояснениямидождь
14:00+15Ю, 5 м/с81%1003 гПас прояснениямидождь
15:00+15Ю, 5 м/с82%1003 гПас прояснениями